createdAt,value
2018-04-13T00:01:53.884Z,5.33
2018-04-13T00:04:22.859Z,5.23
2018-04-13T00:06:51.862Z,6.10
2018-04-13T00:09:20.760Z,6.07
2018-04-13T00:11:49.689Z,5.57
2018-04-13T00:14:19.364Z,5.33
2018-04-13T00:16:48.318Z,5.47
2018-04-13T00:19:17.261Z,5.43
2018-04-13T00:21:46.180Z,5.50
2018-04-13T00:24:15.084Z,5.30
2018-04-13T00:26:44.273Z,5.13
2018-04-13T00:29:13.209Z,4.70
2018-04-13T00:31:42.132Z,4.73
2018-04-13T00:34:11.872Z,5.63
2018-04-13T00:36:40.785Z,5.40
2018-04-13T00:39:09.676Z,5.07
2018-04-13T00:41:38.638Z,4.93
2018-04-13T00:44:07.558Z,5.73
2018-04-13T00:46:36.494Z,5.47
2018-04-13T00:49:06.175Z,4.77
2018-04-13T00:51:35.119Z,5.23
2018-04-13T00:54:04.054Z,4.80
2018-04-13T00:56:33.045Z,5.00
2018-04-13T00:59:01.986Z,5.80
2018-04-13T01:01:30.930Z,5.30
2018-04-13T01:03:59.881Z,5.30
2018-04-13T01:06:28.823Z,5.00
2018-04-13T01:08:57.771Z,5.73
2018-04-13T01:11:26.738Z,5.10
2018-04-13T01:13:56.457Z,5.87
2018-04-13T01:16:25.351Z,4.87
2018-04-13T01:18:54.325Z,5.90
2018-04-13T01:21:23.980Z,5.27
2018-04-13T01:23:52.921Z,5.77
2018-04-13T01:26:22.647Z,5.20
2018-04-13T01:28:51.578Z,5.43
2018-04-13T01:31:20.502Z,5.30
2018-04-13T01:33:49.479Z,5.53
2018-04-13T01:36:18.395Z,5.53
2018-04-13T01:38:47.292Z,5.40
2018-04-13T01:41:17.019Z,5.83
2018-04-13T01:43:45.942Z,5.57
2018-04-13T01:46:14.837Z,5.43
2018-04-13T01:48:43.775Z,6.43
2018-04-13T01:51:12.664Z,6.00
2018-04-13T01:53:42.347Z,5.97
2018-04-13T01:56:11.280Z,5.50
2018-04-13T01:58:40.182Z,5.33
2018-04-13T02:01:09.114Z,5.93
2018-04-13T02:03:38.034Z,6.13
2018-04-13T02:06:07.695Z,5.27
2018-04-13T02:08:36.608Z,5.53
2018-04-13T02:11:05.613Z,6.13
2018-04-13T02:13:34.526Z,6.43
2018-04-13T02:16:03.422Z,6.37
2018-04-13T02:18:32.340Z,7.60
2018-04-13T02:21:01.269Z,7.47
2018-04-13T02:23:30.189Z,8.27
2018-04-13T02:25:59.868Z,8.07
2018-04-13T02:28:28.802Z,8.90
2018-04-13T02:30:57.729Z,8.90
2018-04-13T02:33:26.707Z,9.50
2018-04-13T02:35:55.662Z,9.30
2018-04-13T02:38:25.332Z,10.57
2018-04-13T02:40:54.449Z,10.07
2018-04-13T02:43:24.131Z,9.67
2018-04-13T02:45:53.077Z,9.80
2018-04-13T02:48:22.067Z,10.20
2018-04-13T02:50:50.995Z,10.40
2018-04-13T02:53:19.949Z,9.63
2018-04-13T02:55:48.911Z,9.40
2018-04-13T02:58:17.849Z,8.77
2018-04-13T03:00:46.777Z,8.27
2018-04-13T03:03:15.754Z,7.93
2018-04-13T03:05:44.699Z,8.20
2018-04-13T03:08:13.618Z,8.13
2018-04-13T03:10:42.594Z,7.40
2018-04-13T03:13:11.554Z,7.60
2018-04-13T03:15:40.478Z,8.13
2018-04-13T03:18:09.475Z,7.87
2018-04-13T03:20:38.368Z,6.83
2018-04-13T03:23:07.263Z,7.43
2018-04-13T03:25:36.236Z,8.60
2018-04-13T03:28:05.132Z,7.80
2018-04-13T03:30:34.019Z,7.60
2018-04-13T03:33:02.935Z,6.80
2018-04-13T03:35:31.842Z,8.00
2018-04-13T03:38:00.779Z,7.73
2018-04-13T03:40:29.701Z,6.83
2018-04-13T03:42:58.648Z,8.00
2018-04-13T03:45:28.357Z,7.03
2018-04-13T03:47:57.330Z,6.93
2018-04-13T03:50:26.326Z,7.93
2018-04-13T03:52:55.235Z,7.50
2018-04-13T03:55:24.190Z,7.90
2018-04-13T03:57:53.142Z,8.90
2018-04-13T04:00:22.075Z,7.80
2018-04-13T04:02:51.041Z,8.70
2018-04-13T04:05:19.929Z,8.20
2018-04-13T04:07:48.862Z,7.80
2018-04-13T04:10:17.842Z,7.53
2018-04-13T04:12:46.752Z,8.17
2018-04-13T04:15:15.749Z,7.70
2018-04-13T04:17:44.669Z,8.67
2018-04-13T04:23:40.343Z,9.60
2018-04-13T04:26:28.843Z,9.67
2018-04-13T04:28:58.523Z,9.00
2018-04-13T04:31:27.372Z,9.87
2018-04-13T04:33:56.253Z,9.87
2018-04-13T04:36:25.158Z,10.00
2018-04-13T04:38:54.012Z,11.03
2018-04-13T04:41:23.728Z,9.43
2018-04-13T04:43:52.677Z,9.07
2018-04-13T04:46:21.622Z,8.63
2018-04-13T04:48:50.563Z,11.10
2018-04-13T04:51:19.571Z,9.53
2018-04-13T04:53:48.502Z,9.37
2018-04-13T04:56:17.437Z,10.90
2018-04-13T04:58:47.997Z,11.33
2018-04-13T05:01:17.730Z,10.83
2018-04-13T05:03:46.696Z,11.77
2018-04-13T05:06:15.644Z,12.43
2018-04-13T05:08:44.637Z,11.50
2018-04-13T05:11:13.614Z,11.50
2018-04-13T05:13:42.500Z,10.10
2018-04-13T05:16:11.470Z,10.30
2018-04-13T05:18:40.400Z,10.17
2018-04-13T05:21:09.296Z,12.77
2018-04-13T05:23:38.232Z,12.17
2018-04-13T05:26:07.990Z,11.67
2018-04-13T05:28:36.934Z,10.90
2018-04-13T05:31:06.641Z,9.87
2018-04-13T05:33:36.370Z,11.23
2018-04-13T05:36:05.264Z,10.53
2018-04-13T05:38:34.153Z,11.23
2018-04-13T05:41:03.090Z,11.27
2018-04-13T05:43:32.012Z,11.20
2018-04-13T05:46:01.713Z,11.17
2018-04-13T05:48:31.469Z,12.80
2018-04-13T05:51:00.387Z,11.57
2018-04-13T05:53:29.376Z,10.87
2018-04-13T05:55:58.349Z,11.33
2018-04-13T05:58:27.273Z,11.23
2018-04-13T06:00:56.249Z,11.90
2018-04-13T06:03:25.227Z,13.43
2018-04-13T06:05:54.135Z,12.73
2018-04-13T06:08:23.073Z,12.90
2018-04-13T06:10:52.799Z,12.53
2018-04-13T06:13:21.723Z,12.53
2018-04-13T06:15:50.643Z,15.17
2018-04-13T06:18:19.648Z,14.30
2018-04-13T06:20:49.383Z,12.10
2018-04-13T06:23:18.320Z,13.07
2018-04-13T06:25:47.244Z,13.27
2018-04-13T06:28:16.972Z,14.83
2018-04-13T06:30:45.883Z,13.67
2018-04-13T06:33:14.845Z,15.60
2018-04-13T06:35:43.749Z,15.27
2018-04-13T06:38:12.697Z,15.67
2018-04-13T06:40:41.663Z,14.30
2018-04-13T06:43:10.622Z,14.27
2018-04-13T06:45:39.561Z,15.03
2018-04-13T06:48:08.523Z,14.23
2018-04-13T06:50:37.461Z,14.70
2018-04-13T06:53:06.386Z,15.03
2018-04-13T06:55:35.386Z,15.93
2018-04-13T06:58:04.346Z,14.27
2018-04-13T07:00:34.020Z,15.20
2018-04-13T07:03:03.028Z,14.33
2018-04-13T07:05:31.963Z,15.13
2018-04-13T07:08:00.853Z,13.53
2018-04-13T07:10:29.806Z,13.97
2018-04-13T07:12:58.723Z,13.57
2018-04-13T07:15:28.391Z,13.80
2018-04-13T07:17:57.354Z,11.93
2018-04-13T07:20:26.320Z,11.97
2018-04-13T07:22:55.297Z,13.53
2018-04-13T07:25:24.249Z,11.53
2018-04-13T07:27:53.144Z,11.47
2018-04-13T07:30:22.069Z,11.40
2018-04-13T07:32:51.768Z,11.50
2018-04-13T07:35:20.702Z,11.83
2018-04-13T07:37:49.689Z,11.50
2018-04-13T07:40:18.681Z,10.73
2018-04-13T07:42:47.704Z,11.80
2018-04-13T07:45:16.887Z,10.63
2018-04-13T07:47:45.684Z,11.37
2018-04-13T07:50:14.623Z,11.70
2018-04-13T07:52:43.549Z,11.40
2018-04-13T07:55:12.544Z,11.77
2018-04-13T07:57:41.487Z,11.43
2018-04-13T08:00:10.476Z,9.53
2018-04-13T08:02:39.524Z,9.83
2018-04-13T08:05:08.559Z,10.90
2018-04-13T08:07:37.506Z,10.73
2018-04-13T08:10:06.618Z,12.87
2018-04-13T08:12:35.603Z,11.83
2018-04-13T08:15:04.609Z,9.77
2018-04-13T08:17:33.590Z,11.33
2018-04-13T08:20:02.488Z,11.17
2018-04-13T08:22:31.677Z,10.70
2018-04-13T08:25:00.616Z,9.73
2018-04-13T08:27:30.377Z,10.10
2018-04-13T08:29:59.312Z,10.43
2018-04-13T08:32:28.352Z,7.97
2018-04-13T08:34:57.248Z,7.80
2018-04-13T08:37:26.254Z,6.13
2018-04-13T08:39:55.340Z,6.13
2018-04-13T08:42:25.032Z,5.90
2018-04-13T08:44:53.980Z,5.90
2018-04-13T08:47:22.905Z,6.43
2018-04-13T08:49:52.647Z,6.37
2018-04-13T08:52:21.620Z,5.03
2018-04-13T08:54:50.590Z,5.87
2018-04-13T08:57:19.499Z,5.13
2018-04-13T08:59:48.458Z,5.50
2018-04-13T09:02:17.470Z,5.30
2018-04-13T09:04:47.135Z,5.30
2018-04-13T09:07:16.081Z,5.57
2018-04-13T09:09:45.085Z,6.20
2018-04-13T09:12:13.981Z,6.30
2018-04-13T09:14:42.964Z,5.77
2018-04-13T09:17:12.108Z,6.07
2018-04-13T09:19:41.059Z,5.10
2018-04-13T09:22:10.796Z,5.67
2018-04-13T09:24:39.862Z,7.20
2018-04-13T09:27:08.764Z,6.50
2018-04-13T09:29:37.662Z,6.27
2018-04-13T09:32:06.649Z,5.77
2018-04-13T09:34:35.592Z,6.40
2018-04-13T09:37:04.532Z,6.07
2018-04-13T09:39:33.489Z,5.50
2018-04-13T09:42:03.187Z,6.00
2018-04-13T09:44:32.848Z,5.73
2018-04-13T09:47:01.812Z,5.30
2018-04-13T09:49:30.758Z,5.83
2018-04-13T09:51:59.698Z,6.00
2018-04-13T09:54:28.703Z,5.40
2018-04-13T09:56:57.610Z,5.50
2018-04-13T09:59:26.556Z,5.73
2018-04-13T10:01:55.514Z,6.50
2018-04-13T10:04:24.496Z,6.33
2018-04-13T10:06:53.480Z,6.07
2018-04-13T10:09:22.431Z,6.30
2018-04-13T10:11:51.340Z,5.93
2018-04-13T10:14:20.280Z,7.00
2018-04-13T10:16:50.054Z,7.07
2018-04-13T10:19:19.044Z,6.83
2018-04-13T10:21:48.122Z,7.07
2018-04-13T10:24:17.135Z,7.40
2018-04-13T10:26:46.132Z,7.40
2018-04-13T10:29:15.064Z,7.20
2018-04-13T10:31:44.032Z,6.70
2018-04-13T10:34:12.993Z,6.83
2018-04-13T10:36:41.901Z,7.00
2018-04-13T10:39:10.836Z,6.50
2018-04-13T10:41:40.577Z,6.70
2018-04-13T10:44:09.619Z,7.13
2018-04-13T10:46:38.574Z,6.60
2018-04-13T10:49:07.549Z,7.27
2018-04-13T10:51:36.496Z,6.23
2018-04-13T10:54:05.456Z,6.30
2018-04-13T10:56:34.438Z,6.50
2018-04-13T10:59:03.444Z,6.57
2018-04-13T11:01:32.437Z,6.00
2018-04-13T11:04:01.407Z,6.80
2018-04-13T11:06:30.452Z,5.90
2018-04-13T11:09:00.337Z,6.00
2018-04-13T11:11:29.332Z,6.40
2018-04-13T11:13:58.318Z,6.37
2018-04-13T11:16:27.300Z,6.83
2018-04-13T11:18:56.273Z,6.20
2018-04-13T11:21:25.288Z,5.70
2018-04-13T11:23:54.233Z,6.30
2018-04-13T11:26:23.998Z,6.03
2018-04-13T11:28:52.992Z,6.93
2018-04-13T11:31:21.953Z,6.80
2018-04-13T11:33:50.884Z,6.13
2018-04-13T11:36:19.920Z,5.80
2018-04-13T11:38:49.668Z,6.17
2018-04-13T11:41:18.630Z,5.80
2018-04-13T11:43:48.355Z,6.50
2018-04-13T11:46:17.376Z,6.03
2018-04-13T11:48:46.372Z,6.00
2018-04-13T11:51:15.373Z,5.57
2018-04-13T11:53:44.391Z,5.57
2018-04-13T11:56:14.096Z,5.43
2018-04-13T11:58:43.051Z,6.30
2018-04-13T12:01:12.033Z,6.00
2018-04-13T12:03:40.966Z,6.00
2018-04-13T12:06:10.020Z,5.80
2018-04-13T12:08:38.997Z,4.97
2018-04-13T12:11:07.975Z,5.33
2018-04-13T12:13:36.942Z,5.20
2018-04-13T12:16:05.865Z,5.70
2018-04-13T12:18:34.821Z,5.17
2018-04-13T12:21:08.833Z,5.67
2018-04-13T12:23:37.796Z,5.83
2018-04-13T12:26:06.779Z,5.00
2018-04-13T12:28:35.768Z,5.83
2018-04-13T12:31:04.738Z,5.47
2018-04-13T12:33:33.671Z,5.10
2018-04-13T12:36:02.693Z,5.10
2018-04-13T12:38:32.459Z,5.13
2018-04-13T12:41:01.370Z,5.47
2018-04-13T12:43:30.362Z,4.83
2018-04-13T12:45:59.278Z,5.20
2018-04-13T12:48:28.262Z,4.80
2018-04-13T12:50:57.242Z,4.10
2018-04-13T12:53:26.224Z,5.27
2018-04-13T12:55:55.215Z,5.00
2018-04-13T12:58:24.896Z,4.97
2018-04-13T13:00:53.840Z,4.60
2018-04-13T13:03:24.951Z,4.07
2018-04-13T13:05:53.935Z,4.23
2018-04-13T13:08:22.935Z,4.67
2018-04-13T13:10:51.917Z,5.00
2018-04-13T13:13:20.832Z,4.70
2018-04-13T13:15:49.800Z,4.70
2018-04-13T13:18:18.774Z,4.60
2018-04-13T13:20:47.800Z,4.90
2018-04-13T13:23:16.788Z,4.70
2018-04-13T13:25:48.833Z,4.70
2018-04-13T13:28:17.768Z,4.07
2018-04-13T13:30:46.759Z,4.30
2018-04-13T13:33:15.735Z,4.20
2018-04-13T13:35:44.672Z,4.43
2018-04-13T13:38:14.375Z,3.80
2018-04-13T13:40:44.167Z,4.73
2018-04-13T13:43:13.108Z,4.83
2018-04-13T13:45:42.038Z,4.17
2018-04-13T13:48:11.020Z,4.60
2018-04-13T13:50:39.990Z,4.40
2018-04-13T13:53:08.995Z,4.70
2018-04-13T13:55:37.972Z,5.00
2018-04-13T13:58:06.920Z,5.10
2018-04-13T14:00:35.808Z,4.10
2018-04-13T14:03:04.738Z,4.17
2018-04-13T14:05:33.681Z,5.17
2018-04-13T14:08:02.646Z,4.33
2018-04-13T14:10:31.630Z,4.97
2018-04-13T14:13:00.581Z,4.67
2018-04-13T14:15:30.291Z,4.47
2018-04-13T14:18:00.073Z,4.07
2018-04-13T14:20:29.057Z,4.07
2018-04-13T14:22:58.006Z,3.47
2018-04-13T14:25:27.019Z,4.40
2018-04-13T14:27:55.919Z,3.40
2018-04-13T14:30:24.952Z,3.30
2018-04-13T14:32:53.895Z,2.87
2018-04-13T14:35:22.882Z,2.63
2018-04-13T14:37:51.857Z,2.37
2018-04-13T14:40:20.853Z,2.60
2018-04-13T14:42:49.847Z,2.50
2018-04-13T14:45:18.832Z,3.87
2018-04-13T14:47:47.887Z,1.50
2018-04-13T14:50:16.808Z,2.30
2018-04-13T14:52:46.600Z,1.90
2018-04-13T14:55:15.535Z,1.87
2018-04-13T14:57:44.499Z,1.57
2018-04-13T15:00:14.230Z,1.67
2018-04-13T15:02:43.170Z,2.33
2018-04-13T15:05:12.447Z,2.30
2018-04-13T15:07:43.197Z,1.70
2018-04-13T15:10:12.190Z,1.87
2018-04-13T15:12:41.125Z,1.67
2018-04-13T15:15:10.088Z,1.93
2018-04-13T15:17:40.894Z,1.90
2018-04-13T15:20:09.867Z,1.40
2018-04-13T15:22:38.884Z,1.70
2018-04-13T15:25:07.873Z,1.80
2018-04-13T15:27:36.810Z,2.03
2018-04-13T15:30:06.580Z,1.43
2018-04-13T15:32:35.536Z,1.60
2018-04-13T15:35:04.518Z,1.50
2018-04-13T15:37:33.608Z,1.67
2018-04-13T15:40:02.599Z,1.50
2018-04-13T15:42:32.325Z,2.00
2018-04-13T15:45:01.299Z,2.43
2018-04-13T15:47:31.179Z,1.87
2018-04-13T15:50:00.122Z,1.27
2018-04-13T15:52:29.184Z,2.27
2018-04-13T15:54:58.163Z,1.70
2018-04-13T15:57:27.338Z,1.73
2018-04-13T15:59:56.650Z,1.60
2018-04-13T16:02:25.651Z,1.97
2018-04-13T16:04:54.659Z,1.27
2018-04-13T16:07:23.659Z,2.20
2018-04-13T16:09:53.432Z,1.40
2018-04-13T16:12:22.371Z,1.80
2018-04-13T16:14:52.109Z,1.63
2018-04-13T16:17:21.073Z,1.10
2018-04-13T16:19:49.980Z,1.50
2018-04-13T16:22:18.936Z,1.70
2018-04-13T16:24:47.895Z,1.60
2018-04-13T16:27:16.853Z,1.33
2018-04-13T16:29:46.296Z,2.33
2018-04-13T16:32:15.349Z,1.50
2018-04-13T16:34:44.274Z,1.27
2018-04-13T16:37:13.242Z,1.53
2018-04-13T16:39:42.225Z,1.90
2018-04-13T16:42:11.167Z,1.73
2018-04-13T16:44:40.142Z,1.73
2018-04-13T16:47:09.063Z,1.93
2018-04-13T16:49:38.211Z,1.77
2018-04-13T16:52:07.469Z,1.50
2018-04-13T16:57:26.792Z,1.93
2018-04-13T16:59:55.824Z,2.17
2018-04-13T17:02:24.926Z,2.10
2018-04-13T17:04:54.131Z,1.87
2018-04-13T17:07:23.104Z,2.47
2018-04-13T17:09:52.088Z,1.67
2018-04-13T17:12:21.132Z,1.80
2018-04-13T17:14:50.847Z,1.80
2018-04-13T17:17:19.741Z,1.93
2018-04-13T17:19:48.656Z,1.63
2018-04-13T17:22:17.544Z,1.77
2018-04-13T17:24:46.514Z,1.53
2018-04-13T17:27:15.628Z,1.60
2018-04-13T17:29:44.593Z,1.43
2018-04-13T17:32:13.546Z,2.07
2018-04-13T17:34:42.509Z,2.10
2018-04-13T17:37:11.398Z,1.47
2018-04-13T17:39:40.358Z,2.20
2018-04-13T17:42:10.138Z,2.00
2018-04-13T17:44:39.060Z,4.97
2018-04-13T17:47:08.746Z,3.70
2018-04-13T17:49:37.664Z,1.97
2018-04-13T17:52:07.378Z,1.80
2018-04-13T17:54:36.272Z,2.20
2018-04-13T17:57:05.201Z,2.00
2018-04-13T17:59:34.198Z,1.60
2018-04-13T18:02:03.179Z,2.73
2018-04-13T18:04:32.200Z,2.57
2018-04-13T18:07:01.152Z,2.30
2018-04-13T18:09:30.277Z,1.93
2018-04-13T18:11:59.299Z,2.00
2018-04-13T18:14:28.996Z,2.83
2018-04-13T18:16:57.914Z,2.10
2018-04-13T18:19:27.591Z,2.47
2018-04-13T18:21:56.551Z,2.50
2018-04-13T18:24:25.513Z,2.57
2018-04-13T18:26:54.611Z,2.40
2018-04-13T18:29:23.509Z,2.90
2018-04-13T18:31:52.416Z,2.40
2018-04-13T18:34:21.401Z,1.80
2018-04-13T18:36:50.316Z,2.47
2018-04-13T18:39:19.218Z,2.63
2018-04-13T18:41:48.318Z,3.20
2018-04-13T18:44:17.408Z,3.03
2018-04-13T18:46:46.371Z,2.60
2018-04-13T18:49:15.366Z,2.53
2018-04-13T18:51:44.328Z,2.47
2018-04-13T18:54:13.986Z,2.30
2018-04-13T18:56:43.081Z,2.60
2018-04-13T18:59:12.058Z,2.37
2018-04-13T19:01:41.000Z,2.63
2018-04-13T19:04:10.692Z,2.70
2018-04-13T19:06:39.650Z,2.90
2018-04-13T19:09:08.681Z,3.00
2018-04-13T19:11:37.754Z,2.50
2018-04-13T19:14:06.692Z,3.40
2018-04-13T19:16:35.624Z,2.63
2018-04-13T19:19:04.634Z,4.40
2018-04-13T19:21:33.576Z,3.10
2018-04-13T19:24:02.556Z,2.67
2018-04-13T19:26:32.274Z,2.50
2018-04-13T19:29:01.175Z,2.50
2018-04-13T19:31:30.116Z,2.37
2018-04-13T19:33:59.120Z,2.60
2018-04-13T19:36:28.076Z,2.30
2018-04-13T19:38:57.055Z,2.53
2018-04-13T19:41:26.098Z,3.00
2018-04-13T19:43:55.019Z,3.20
2018-04-13T19:46:24.012Z,2.73
2018-04-13T19:48:52.921Z,2.90
2018-04-13T19:51:21.861Z,3.40
2018-04-13T19:53:50.804Z,3.43
2018-04-13T19:56:19.776Z,3.43
2018-04-13T19:58:48.666Z,4.37
2018-04-13T20:01:17.568Z,3.60
2018-04-13T20:03:46.558Z,3.70
2018-04-13T20:06:16.221Z,3.93
2018-04-13T20:08:45.176Z,3.30
2018-04-13T20:11:14.122Z,3.53
2018-04-13T20:13:43.806Z,3.30
2018-04-13T20:16:18.564Z,3.90
2018-04-13T20:18:48.214Z,3.90
2018-04-13T20:21:17.125Z,3.67
2018-04-13T20:23:46.041Z,4.57
2018-04-13T20:26:14.916Z,4.13
2018-04-13T20:28:43.838Z,4.10
2018-04-13T20:31:13.498Z,4.10
2018-04-13T20:33:42.409Z,4.00
2018-04-13T20:36:11.374Z,4.47
2018-04-13T20:38:40.354Z,4.73
2018-04-13T20:41:09.266Z,5.03
2018-04-13T20:43:38.178Z,4.10
2018-04-13T20:46:07.088Z,3.93
2018-04-13T20:48:36.835Z,3.77
2018-04-13T20:51:05.732Z,4.60
2018-04-13T20:53:34.682Z,3.77
2018-04-13T20:56:04.371Z,4.23
2018-04-13T20:58:33.273Z,4.47
2018-04-13T21:01:02.267Z,4.47
2018-04-13T21:03:31.920Z,4.67
2018-04-13T21:06:00.829Z,4.23
2018-04-13T21:08:29.803Z,4.47
2018-04-13T21:10:58.765Z,4.20
2018-04-13T21:13:28.435Z,4.23
2018-04-13T21:15:57.400Z,4.17
2018-04-13T21:18:26.318Z,4.23
2018-04-13T21:20:55.237Z,4.60
2018-04-13T21:23:24.305Z,4.30
2018-04-13T21:25:53.242Z,4.37
2018-04-13T21:28:22.164Z,4.03
2018-04-13T21:30:51.135Z,4.77
2018-04-13T21:33:20.825Z,4.57
2018-04-13T21:35:49.780Z,4.80
2018-04-13T21:38:18.731Z,4.23
2018-04-13T21:40:47.665Z,5.13
2018-04-13T21:43:16.632Z,5.60
2018-04-13T21:45:45.591Z,5.30
2018-04-13T21:48:14.495Z,5.27
2018-04-13T21:50:43.489Z,5.60
2018-04-13T21:53:12.465Z,6.00
2018-04-13T21:55:41.374Z,6.10
2018-04-13T21:58:10.346Z,5.63
2018-04-13T22:00:40.027Z,5.70
2018-04-13T22:03:08.988Z,5.93
2018-04-13T22:05:37.924Z,6.80
2018-04-13T22:08:07.671Z,5.53
2018-04-13T22:10:36.667Z,5.93
2018-04-13T22:13:23.365Z,5.63
2018-04-13T22:15:52.301Z,6.37
2018-04-13T22:18:21.256Z,6.13
2018-04-13T22:20:50.243Z,6.50
2018-04-13T22:23:19.239Z,6.47
2018-04-13T22:25:48.150Z,6.30
2018-04-13T22:28:17.145Z,6.43
2018-04-13T22:30:46.091Z,6.40
2018-04-13T22:33:15.033Z,6.20
2018-04-13T22:35:43.951Z,7.07
2018-04-13T22:38:12.860Z,6.33
2018-04-13T22:40:42.602Z,5.83
2018-04-13T22:43:11.537Z,5.40
2018-04-13T22:45:40.451Z,6.10
2018-04-13T22:48:09.372Z,6.27
2018-04-13T22:50:38.357Z,5.77
2018-04-13T22:53:07.297Z,5.27
2018-04-13T22:55:36.184Z,5.03
2018-04-13T22:58:05.125Z,4.97
2018-04-13T23:00:34.057Z,5.00
2018-04-13T23:03:02.955Z,4.87
2018-04-13T23:05:31.859Z,5.80
2018-04-13T23:08:00.778Z,5.23
2018-04-13T23:10:29.702Z,4.87
2018-04-13T23:12:58.670Z,4.60
2018-04-13T23:15:27.572Z,3.93
2018-04-13T23:17:56.498Z,4.57
2018-04-13T23:20:25.494Z,5.50
2018-04-13T23:22:54.388Z,4.50
2018-04-13T23:25:23.288Z,4.80
2018-04-13T23:27:52.225Z,5.37
2018-04-13T23:30:21.108Z,4.13
2018-04-13T23:32:50.008Z,4.53
2018-04-13T23:35:18.971Z,4.93
2018-04-13T23:37:48.706Z,4.40
2018-04-13T23:40:17.637Z,4.70
2018-04-13T23:42:46.557Z,4.17
2018-04-13T23:45:16.316Z,4.43
2018-04-13T23:47:46.097Z,4.60
2018-04-13T23:50:15.803Z,4.37
2018-04-13T23:52:44.719Z,4.50
2018-04-13T23:55:13.772Z,4.43
2018-04-13T23:57:43.428Z,4.43
